sensor_id;sensor_type;location;lat;lon;timestamp;P1;durP1;ratioP1;P2;durP2;ratioP2
37409;SDS011;23275;48.914;12.566;2023-03-03T00:00:24;24.88;;;13.88;;
37409;SDS011;23275;48.914;12.566;2023-03-03T00:02:50;29.90;;;14.60;;
37409;SDS011;23275;48.914;12.566;2023-03-03T00:05:16;27.50;;;14.30;;
37409;SDS011;23275;48.914;12.566;2023-03-03T00:07:45;25.30;;;14.25;;
37409;SDS011;23275;48.914;12.566;2023-03-03T00:10:12;26.35;;;13.80;;
37409;SDS011;23275;48.914;12.566;2023-03-03T00:12:47;25.42;;;13.70;;
37409;SDS011;23275;48.914;12.566;2023-03-03T00:15:18;22.88;;;13.48;;
37409;SDS011;23275;48.914;12.566;2023-03-03T00:17:46;26.02;;;13.70;;
37409;SDS011;23275;48.914;12.566;2023-03-03T00:25:52;24.70;;;12.77;;
37409;SDS011;23275;48.914;12.566;2023-03-03T00:28:26;24.00;;;12.48;;
37409;SDS011;23275;48.914;12.566;2023-03-03T00:30:58;24.85;;;13.65;;
37409;SDS011;23275;48.914;12.566;2023-03-03T00:33:26;27.27;;;13.98;;
37409;SDS011;23275;48.914;12.566;2023-03-03T00:38:45;23.15;;;11.82;;
37409;SDS011;23275;48.914;12.566;2023-03-03T00:41:22;20.85;;;11.95;;
37409;SDS011;23275;48.914;12.566;2023-03-03T00:43:49;25.05;;;13.10;;
37409;SDS011;23275;48.914;12.566;2023-03-03T00:46:16;31.27;;;13.95;;
37409;SDS011;23275;48.914;12.566;2023-03-03T00:48:46;26.65;;;13.35;;
37409;SDS011;23275;48.914;12.566;2023-03-03T00:51:30;27.83;;;13.38;;
37409;SDS011;23275;48.914;12.566;2023-03-03T00:53:57;31.65;;;14.25;;
37409;SDS011;23275;48.914;12.566;2023-03-03T00:56:23;27.00;;;13.68;;
37409;SDS011;23275;48.914;12.566;2023-03-03T00:58:50;31.10;;;14.43;;
37409;SDS011;23275;48.914;12.566;2023-03-03T01:01:16;25.98;;;14.43;;
37409;SDS011;23275;48.914;12.566;2023-03-03T01:03:42;25.20;;;13.68;;
37409;SDS011;23275;48.914;12.566;2023-03-03T01:06:09;26.65;;;14.23;;
37409;SDS011;23275;48.914;12.566;2023-03-03T01:08:35;23.15;;;13.52;;
37409;SDS011;23275;48.914;12.566;2023-03-03T01:11:06;29.95;;;14.05;;
37409;SDS011;23275;48.914;12.566;2023-03-03T01:13:35;25.77;;;13.13;;
37409;SDS011;23275;48.914;12.566;2023-03-03T01:16:04;27.48;;;13.48;;
37409;SDS011;23275;48.914;12.566;2023-03-03T01:18:30;30.33;;;13.80;;
37409;SDS011;23275;48.914;12.566;2023-03-03T01:20:56;25.17;;;14.20;;
37409;SDS011;23275;48.914;12.566;2023-03-03T01:23:21;26.05;;;13.70;;
37409;SDS011;23275;48.914;12.566;2023-03-03T01:25:47;30.95;;;15.02;;
37409;SDS011;23275;48.914;12.566;2023-03-03T01:28:12;26.58;;;14.77;;
37409;SDS011;23275;48.914;12.566;2023-03-03T01:30:38;28.67;;;14.00;;
37409;SDS011;23275;48.914;12.566;2023-03-03T01:33:03;28.27;;;13.90;;
37409;SDS011;23275;48.914;12.566;2023-03-03T01:35:29;32.95;;;14.88;;
37409;SDS011;23275;48.914;12.566;2023-03-03T01:37:54;31.08;;;14.88;;
37409;SDS011;23275;48.914;12.566;2023-03-03T01:40:24;30.63;;;14.93;;
37409;SDS011;23275;48.914;12.566;2023-03-03T01:42:52;27.88;;;14.48;;
37409;SDS011;23275;48.914;12.566;2023-03-03T01:45:20;33.13;;;14.77;;
37409;SDS011;23275;48.914;12.566;2023-03-03T01:47:52;28.38;;;14.02;;
37409;SDS011;23275;48.914;12.566;2023-03-03T01:50:33;26.98;;;13.45;;
37409;SDS011;23275;48.914;12.566;2023-03-03T01:53:08;32.13;;;14.55;;
37409;SDS011;23275;48.914;12.566;2023-03-03T01:55:38;29.05;;;15.73;;
37409;SDS011;23275;48.914;12.566;2023-03-03T02:00:56;24.40;;;13.93;;
37409;SDS011;23275;48.914;12.566;2023-03-03T02:03:26;32.50;;;15.73;;
37409;SDS011;23275;48.914;12.566;2023-03-03T02:05:56;29.60;;;15.48;;
37409;SDS011;23275;48.914;12.566;2023-03-03T02:08:30;31.55;;;14.52;;
37409;SDS011;23275;48.914;12.566;2023-03-03T02:11:08;33.03;;;15.55;;
37409;SDS011;23275;48.914;12.566;2023-03-03T02:13:35;27.95;;;15.35;;
37409;SDS011;23275;48.914;12.566;2023-03-03T02:16:01;26.17;;;15.13;;
37409;SDS011;23275;48.914;12.566;2023-03-03T02:18:26;30.65;;;14.80;;
37409;SDS011;23275;48.914;12.566;2023-03-03T02:20:57;29.60;;;15.07;;
37409;SDS011;23275;48.914;12.566;2023-03-03T02:23:37;31.63;;;14.60;;
37409;SDS011;23275;48.914;12.566;2023-03-03T02:26:17;31.10;;;14.57;;
37409;SDS011;23275;48.914;12.566;2023-03-03T02:28:49;28.85;;;15.25;;
37409;SDS011;23275;48.914;12.566;2023-03-03T02:31:17;29.10;;;15.35;;
37409;SDS011;23275;48.914;12.566;2023-03-03T02:33:46;31.55;;;15.60;;
37409;SDS011;23275;48.914;12.566;2023-03-03T02:36:14;30.17;;;15.00;;
37409;SDS011;23275;48.914;12.566;2023-03-03T02:38:48;39.90;;;17.35;;
37409;SDS011;23275;48.914;12.566;2023-03-03T02:44:09;35.72;;;16.95;;
37409;SDS011;23275;48.914;12.566;2023-03-03T02:46:37;34.05;;;16.63;;
37409;SDS011;23275;48.914;12.566;2023-03-03T02:49:06;29.67;;;15.68;;
37409;SDS011;23275;48.914;12.566;2023-03-03T02:51:33;33.72;;;17.00;;
37409;SDS011;23275;48.914;12.566;2023-03-03T02:53:59;32.03;;;16.30;;
37409;SDS011;23275;48.914;12.566;2023-03-03T02:56:25;32.55;;;16.00;;
37409;SDS011;23275;48.914;12.566;2023-03-03T02:58:51;30.10;;;15.68;;
37409;SDS011;23275;48.914;12.566;2023-03-03T03:01:16;32.97;;;17.05;;
37409;SDS011;23275;48.914;12.566;2023-03-03T03:03:43;34.72;;;16.80;;
37409;SDS011;23275;48.914;12.566;2023-03-03T03:06:09;30.60;;;16.00;;
37409;SDS011;23275;48.914;12.566;2023-03-03T03:08:35;35.65;;;17.05;;
37409;SDS011;23275;48.914;12.566;2023-03-03T03:11:00;33.03;;;16.30;;
37409;SDS011;23275;48.914;12.566;2023-03-03T03:13:27;33.05;;;16.92;;
37409;SDS011;23275;48.914;12.566;2023-03-03T03:15:52;32.78;;;17.00;;
37409;SDS011;23275;48.914;12.566;2023-03-03T03:18:18;38.88;;;16.65;;
37409;SDS011;23275;48.914;12.566;2023-03-03T03:20:44;34.13;;;17.90;;
37409;SDS011;23275;48.914;12.566;2023-03-03T03:23:10;30.13;;;15.82;;
37409;SDS011;23275;48.914;12.566;2023-03-03T03:25:36;31.15;;;16.63;;
37409;SDS011;23275;48.914;12.566;2023-03-03T03:28:09;29.77;;;16.92;;
37409;SDS011;23275;48.914;12.566;2023-03-03T03:30:36;29.58;;;15.38;;
37409;SDS011;23275;48.914;12.566;2023-03-03T03:33:02;30.15;;;15.45;;
37409;SDS011;23275;48.914;12.566;2023-03-03T03:35:28;33.13;;;16.33;;
37409;SDS011;23275;48.914;12.566;2023-03-03T03:37:53;30.98;;;16.08;;
37409;SDS011;23275;48.914;12.566;2023-03-03T03:40:19;32.78;;;16.92;;
37409;SDS011;23275;48.914;12.566;2023-03-03T03:42:44;33.00;;;15.20;;
37409;SDS011;23275;48.914;12.566;2023-03-03T03:45:10;32.65;;;15.57;;
37409;SDS011;23275;48.914;12.566;2023-03-03T03:47:39;30.17;;;15.85;;
37409;SDS011;23275;48.914;12.566;2023-03-03T03:50:05;28.90;;;15.77;;
37409;SDS011;23275;48.914;12.566;2023-03-03T03:52:32;27.70;;;15.68;;
37409;SDS011;23275;48.914;12.566;2023-03-03T03:54:57;30.95;;;15.63;;
37409;SDS011;23275;48.914;12.566;2023-03-03T03:57:23;32.63;;;15.43;;
37409;SDS011;23275;48.914;12.566;2023-03-03T03:59:48;27.42;;;15.45;;
37409;SDS011;23275;48.914;12.566;2023-03-03T04:02:14;32.75;;;15.30;;
37409;SDS011;23275;48.914;12.566;2023-03-03T04:04:40;33.17;;;16.25;;
37409;SDS011;23275;48.914;12.566;2023-03-03T04:07:05;36.58;;;16.17;;
37409;SDS011;23275;48.914;12.566;2023-03-03T04:09:31;32.58;;;16.20;;
37409;SDS011;23275;48.914;12.566;2023-03-03T04:11:56;29.25;;;15.20;;
37409;SDS011;23275;48.914;12.566;2023-03-03T04:14:22;36.88;;;16.08;;
37409;SDS011;23275;48.914;12.566;2023-03-03T04:16:47;27.40;;;15.75;;
37409;SDS011;23275;48.914;12.566;2023-03-03T04:19:13;31.33;;;15.20;;
37409;SDS011;23275;48.914;12.566;2023-03-03T04:21:38;29.05;;;15.93;;
37409;SDS011;23275;48.914;12.566;2023-03-03T04:24:04;31.70;;;15.40;;
37409;SDS011;23275;48.914;12.566;2023-03-03T04:26:30;33.78;;;16.63;;
37409;SDS011;23275;48.914;12.566;2023-03-03T04:28:56;34.10;;;16.48;;
37409;SDS011;23275;48.914;12.566;2023-03-03T04:31:22;30.33;;;16.17;;
37409;SDS011;23275;48.914;12.566;2023-03-03T04:33:49;31.15;;;16.60;;
37409;SDS011;23275;48.914;12.566;2023-03-03T04:36:15;30.73;;;16.05;;
37409;SDS011;23275;48.914;12.566;2023-03-03T04:38:41;28.58;;;15.15;;
37409;SDS011;23275;48.914;12.566;2023-03-03T04:41:07;30.73;;;15.95;;
37409;SDS011;23275;48.914;12.566;2023-03-03T04:43:32;32.50;;;17.02;;
37409;SDS011;23275;48.914;12.566;2023-03-03T04:45:58;34.80;;;17.17;;
37409;SDS011;23275;48.914;12.566;2023-03-03T04:48:23;33.90;;;17.50;;
37409;SDS011;23275;48.914;12.566;2023-03-03T04:50:49;28.48;;;16.85;;
37409;SDS011;23275;48.914;12.566;2023-03-03T04:53:15;30.77;;;15.38;;
37409;SDS011;23275;48.914;12.566;2023-03-03T04:55:40;30.25;;;15.88;;
37409;SDS011;23275;48.914;12.566;2023-03-03T04:58:06;32.88;;;15.10;;
37409;SDS011;23275;48.914;12.566;2023-03-03T05:00:33;30.33;;;16.45;;
37409;SDS011;23275;48.914;12.566;2023-03-03T05:02:58;32.00;;;16.50;;
37409;SDS011;23275;48.914;12.566;2023-03-03T05:05:24;27.60;;;16.48;;
37409;SDS011;23275;48.914;12.566;2023-03-03T05:07:49;32.13;;;15.90;;
37409;SDS011;23275;48.914;12.566;2023-03-03T05:10:15;30.65;;;15.10;;
37409;SDS011;23275;48.914;12.566;2023-03-03T05:12:41;34.47;;;16.05;;
37409;SDS011;23275;48.914;12.566;2023-03-03T05:15:08;31.67;;;16.05;;
37409;SDS011;23275;48.914;12.566;2023-03-03T05:17:34;32.22;;;17.23;;
37409;SDS011;23275;48.914;12.566;2023-03-03T05:19:59;29.45;;;17.10;;
37409;SDS011;23275;48.914;12.566;2023-03-03T05:22:29;31.27;;;16.50;;
37409;SDS011;23275;48.914;12.566;2023-03-03T05:24:55;35.55;;;17.92;;
37409;SDS011;23275;48.914;12.566;2023-03-03T05:27:21;32.50;;;17.15;;
37409;SDS011;23275;48.914;12.566;2023-03-03T05:29:47;29.52;;;16.48;;
37409;SDS011;23275;48.914;12.566;2023-03-03T05:32:12;30.35;;;16.48;;
37409;SDS011;23275;48.914;12.566;2023-03-03T05:34:38;45.88;;;21.10;;
37409;SDS011;23275;48.914;12.566;2023-03-03T05:37:03;36.00;;;18.02;;
37409;SDS011;23275;48.914;12.566;2023-03-03T05:39:30;37.33;;;17.48;;
37409;SDS011;23275;48.914;12.566;2023-03-03T05:41:56;28.58;;;15.63;;
37409;SDS011;23275;48.914;12.566;2023-03-03T05:44:24;30.90;;;16.42;;
37409;SDS011;23275;48.914;12.566;2023-03-03T05:46:50;30.85;;;16.33;;
37409;SDS011;23275;48.914;12.566;2023-03-03T05:49:15;35.95;;;16.27;;
37409;SDS011;23275;48.914;12.566;2023-03-03T05:51:41;28.20;;;16.13;;
37409;SDS011;23275;48.914;12.566;2023-03-03T05:54:07;30.80;;;15.68;;
37409;SDS011;23275;48.914;12.566;2023-03-03T05:56:32;27.73;;;15.38;;
37409;SDS011;23275;48.914;12.566;2023-03-03T05:58:58;29.10;;;16.10;;
37409;SDS011;23275;48.914;12.566;2023-03-03T06:01:23;29.27;;;15.95;;
37409;SDS011;23275;48.914;12.566;2023-03-03T06:03:49;28.95;;;15.20;;
37409;SDS011;23275;48.914;12.566;2023-03-03T06:06:14;28.20;;;15.40;;
37409;SDS011;23275;48.914;12.566;2023-03-03T06:08:41;31.10;;;15.75;;
37409;SDS011;23275;48.914;12.566;2023-03-03T06:11:06;34.78;;;16.05;;
37409;SDS011;23275;48.914;12.566;2023-03-03T06:13:32;37.53;;;18.30;;
37409;SDS011;23275;48.914;12.566;2023-03-03T06:15:58;34.22;;;17.40;;
37409;SDS011;23275;48.914;12.566;2023-03-03T06:18:23;32.67;;;18.10;;
37409;SDS011;23275;48.914;12.566;2023-03-03T06:20:52;31.00;;;17.85;;
37409;SDS011;23275;48.914;12.566;2023-03-03T06:23:19;33.42;;;18.23;;
37409;SDS011;23275;48.914;12.566;2023-03-03T06:25:45;33.53;;;16.95;;
37409;SDS011;23275;48.914;12.566;2023-03-03T06:28:11;30.90;;;16.75;;
37409;SDS011;23275;48.914;12.566;2023-03-03T06:30:37;33.88;;;18.25;;
37409;SDS011;23275;48.914;12.566;2023-03-03T06:33:03;34.00;;;19.63;;
37409;SDS011;23275;48.914;12.566;2023-03-03T06:35:28;35.40;;;18.20;;
37409;SDS011;23275;48.914;12.566;2023-03-03T06:37:54;31.10;;;18.23;;
37409;SDS011;23275;48.914;12.566;2023-03-03T06:40:19;36.05;;;17.90;;
37409;SDS011;23275;48.914;12.566;2023-03-03T06:42:45;36.35;;;18.30;;
37409;SDS011;23275;48.914;12.566;2023-03-03T06:45:11;35.35;;;19.00;;
37409;SDS011;23275;48.914;12.566;2023-03-03T06:47:37;30.63;;;16.63;;
37409;SDS011;23275;48.914;12.566;2023-03-03T06:50:02;34.47;;;17.88;;
37409;SDS011;23275;48.914;12.566;2023-03-03T06:52:28;34.97;;;18.02;;
37409;SDS011;23275;48.914;12.566;2023-03-03T06:54:57;33.80;;;18.90;;
37409;SDS011;23275;48.914;12.566;2023-03-03T06:57:26;36.85;;;18.02;;
37409;SDS011;23275;48.914;12.566;2023-03-03T06:59:54;33.88;;;18.13;;
37409;SDS011;23275;48.914;12.566;2023-03-03T07:02:24;33.95;;;17.80;;
37409;SDS011;23275;48.914;12.566;2023-03-03T07:04:49;35.08;;;18.23;;
37409;SDS011;23275;48.914;12.566;2023-03-03T07:07:21;31.73;;;18.05;;
37409;SDS011;23275;48.914;12.566;2023-03-03T07:09:50;34.08;;;18.17;;
37409;SDS011;23275;48.914;12.566;2023-03-03T07:12:22;36.00;;;19.05;;
37409;SDS011;23275;48.914;12.566;2023-03-03T07:15:09;33.40;;;18.80;;
37409;SDS011;23275;48.914;12.566;2023-03-03T07:17:38;35.05;;;18.73;;
37409;SDS011;23275;48.914;12.566;2023-03-03T07:20:52;30.05;;;17.67;;
37409;SDS011;23275;48.914;12.566;2023-03-03T07:25:46;40.08;;;18.00;;
37409;SDS011;23275;48.914;12.566;2023-03-03T07:28:25;32.75;;;18.10;;
37409;SDS011;23275;48.914;12.566;2023-03-03T07:30:53;31.33;;;18.15;;
37409;SDS011;23275;48.914;12.566;2023-03-03T07:35:50;40.75;;;18.20;;
37409;SDS011;23275;48.914;12.566;2023-03-03T07:38:20;30.65;;;17.17;;
37409;SDS011;23275;48.914;12.566;2023-03-03T07:40:51;27.42;;;15.88;;
37409;SDS011;23275;48.914;12.566;2023-03-03T07:48:35;30.27;;;16.05;;
37409;SDS011;23275;48.914;12.566;2023-03-03T07:51:04;30.95;;;16.45;;
37409;SDS011;23275;48.914;12.566;2023-03-03T07:53:37;30.63;;;17.08;;
37409;SDS011;23275;48.914;12.566;2023-03-03T07:56:26;26.00;;;15.07;;
37409;SDS011;23275;48.914;12.566;2023-03-03T07:58:49;30.48;;;16.77;;
37409;SDS011;23275;48.914;12.566;2023-03-03T08:06:53;29.17;;;16.27;;
37409;SDS011;23275;48.914;12.566;2023-03-03T08:11:54;29.67;;;15.63;;
37409;SDS011;23275;48.914;12.566;2023-03-03T08:14:34;29.02;;;16.42;;
37409;SDS011;23275;48.914;12.566;2023-03-03T08:17:01;26.08;;;16.20;;
37409;SDS011;23275;48.914;12.566;2023-03-03T08:19:38;30.98;;;17.48;;
37409;SDS011;23275;48.914;12.566;2023-03-03T08:22:14;27.77;;;16.40;;
37409;SDS011;23275;48.914;12.566;2023-03-03T08:24:55;30.00;;;17.05;;
37409;SDS011;23275;48.914;12.566;2023-03-03T08:27:20;30.48;;;17.58;;
37409;SDS011;23275;48.914;12.566;2023-03-03T08:29:46;32.20;;;17.95;;
37409;SDS011;23275;48.914;12.566;2023-03-03T08:32:14;29.60;;;17.65;;
37409;SDS011;23275;48.914;12.566;2023-03-03T08:34:39;26.27;;;16.70;;
37409;SDS011;23275;48.914;12.566;2023-03-03T08:37:05;26.52;;;16.20;;
37409;SDS011;23275;48.914;12.566;2023-03-03T08:39:31;26.98;;;16.05;;
37409;SDS011;23275;48.914;12.566;2023-03-03T08:41:56;28.73;;;16.65;;
37409;SDS011;23275;48.914;12.566;2023-03-03T08:44:22;28.80;;;16.17;;
37409;SDS011;23275;48.914;12.566;2023-03-03T08:46:48;27.77;;;16.77;;
37409;SDS011;23275;48.914;12.566;2023-03-03T08:49:13;23.90;;;15.52;;
37409;SDS011;23275;48.914;12.566;2023-03-03T08:51:39;27.80;;;15.57;;
37409;SDS011;23275;48.914;12.566;2023-03-03T08:54:05;24.08;;;16.30;;
37409;SDS011;23275;48.914;12.566;2023-03-03T08:56:30;25.95;;;16.27;;
37409;SDS011;23275;48.914;12.566;2023-03-03T08:58:56;22.65;;;16.17;;
37409;SDS011;23275;48.914;12.566;2023-03-03T09:01:21;24.70;;;15.27;;
37409;SDS011;23275;48.914;12.566;2023-03-03T09:03:47;23.95;;;16.20;;
37409;SDS011;23275;48.914;12.566;2023-03-03T09:06:12;30.25;;;17.10;;
37409;SDS011;23275;48.914;12.566;2023-03-03T09:08:38;22.55;;;15.65;;
37409;SDS011;23275;48.914;12.566;2023-03-03T09:11:13;24.80;;;16.75;;
37409;SDS011;23275;48.914;12.566;2023-03-03T09:13:41;25.73;;;17.77;;
37409;SDS011;23275;48.914;12.566;2023-03-03T09:16:13;23.98;;;16.75;;
37409;SDS011;23275;48.914;12.566;2023-03-03T09:18:40;22.77;;;16.65;;
37409;SDS011;23275;48.914;12.566;2023-03-03T09:21:16;25.05;;;17.05;;
37409;SDS011;23275;48.914;12.566;2023-03-03T09:23:59;25.48;;;17.67;;
37409;SDS011;23275;48.914;12.566;2023-03-03T09:26:29;26.02;;;17.98;;
37409;SDS011;23275;48.914;12.566;2023-03-03T09:31:39;29.00;;;18.02;;
37409;SDS011;23275;48.914;12.566;2023-03-03T09:36:59;28.25;;;18.45;;
37409;SDS011;23275;48.914;12.566;2023-03-03T09:39:26;23.67;;;17.88;;
37409;SDS011;23275;48.914;12.566;2023-03-03T09:47:26;23.58;;;16.88;;
37409;SDS011;23275;48.914;12.566;2023-03-03T10:06:37;27.00;;;17.33;;
37409;SDS011;23275;48.914;12.566;2023-03-03T10:09:28;25.90;;;17.52;;
37409;SDS011;23275;48.914;12.566;2023-03-03T10:12:18;26.05;;;17.17;;
37409;SDS011;23275;48.914;12.566;2023-03-03T10:14:57;25.45;;;16.27;;
37409;SDS011;23275;48.914;12.566;2023-03-03T10:17:51;33.13;;;17.27;;
37409;SDS011;23275;48.914;12.566;2023-03-03T10:21:22;21.38;;;15.40;;
37409;SDS011;23275;48.914;12.566;2023-03-03T10:26:18;23.52;;;15.65;;
37409;SDS011;23275;48.914;12.566;2023-03-03T10:37:18;28.08;;;17.55;;
37409;SDS011;23275;48.914;12.566;2023-03-03T10:51:02;25.42;;;18.40;;
37409;SDS011;23275;48.914;12.566;2023-03-03T10:53:59;26.05;;;18.38;;
37409;SDS011;23275;48.914;12.566;2023-03-03T11:01:59;24.65;;;17.88;;
37409;SDS011;23275;48.914;12.566;2023-03-03T11:04:46;24.60;;;18.70;;
37409;SDS011;23275;48.914;12.566;2023-03-03T11:07:38;27.48;;;17.85;;
37409;SDS011;23275;48.914;12.566;2023-03-03T11:10:29;27.08;;;18.25;;
37409;SDS011;23275;48.914;12.566;2023-03-03T11:36:07;39.08;;;19.60;;
37409;SDS011;23275;48.914;12.566;2023-03-03T11:40:52;33.38;;;19.40;;
37409;SDS011;23275;48.914;12.566;2023-03-03T11:43:43;32.63;;;20.55;;
37409;SDS011;23275;48.914;12.566;2023-03-03T11:46:26;27.27;;;18.50;;
37409;SDS011;23275;48.914;12.566;2023-03-03T11:49:08;33.92;;;20.17;;
37409;SDS011;23275;48.914;12.566;2023-03-03T12:05:12;31.50;;;19.75;;
37409;SDS011;23275;48.914;12.566;2023-03-03T12:10:32;30.83;;;17.52;;
37409;SDS011;23275;48.914;12.566;2023-03-03T12:13:05;26.52;;;16.17;;
37409;SDS011;23275;48.914;12.566;2023-03-03T12:19:03;28.02;;;16.40;;
37409;SDS011;23275;48.914;12.566;2023-03-03T12:24:59;28.45;;;16.65;;
37409;SDS011;23275;48.914;12.566;2023-03-03T12:30:12;28.27;;;16.88;;
37409;SDS011;23275;48.914;12.566;2023-03-03T12:35:48;29.75;;;17.50;;
37409;SDS011;23275;48.914;12.566;2023-03-03T12:41:02;33.38;;;18.83;;
37409;SDS011;23275;48.914;12.566;2023-03-03T12:44:01;29.52;;;18.05;;
37409;SDS011;23275;48.914;12.566;2023-03-03T12:46:42;31.35;;;18.98;;
37409;SDS011;23275;48.914;12.566;2023-03-03T12:49:19;30.38;;;19.33;;
37409;SDS011;23275;48.914;12.566;2023-03-03T12:57:15;31.83;;;18.42;;
37409;SDS011;23275;48.914;12.566;2023-03-03T13:07:58;35.20;;;19.98;;
37409;SDS011;23275;48.914;12.566;2023-03-03T13:10:53;32.60;;;19.00;;
37409;SDS011;23275;48.914;12.566;2023-03-03T13:14:09;28.02;;;17.38;;
37409;SDS011;23275;48.914;12.566;2023-03-03T13:16:23;30.42;;;17.92;;
37409;SDS011;23275;48.914;12.566;2023-03-03T13:19:20;30.33;;;17.95;;
37409;SDS011;23275;48.914;12.566;2023-03-03T13:21:59;27.08;;;17.38;;
37409;SDS011;23275;48.914;12.566;2023-03-03T13:27:19;28.65;;;18.52;;
37409;SDS011;23275;48.914;12.566;2023-03-03T13:29:53;31.92;;;18.65;;
37409;SDS011;23275;48.914;12.566;2023-03-03T13:37:41;28.67;;;18.25;;
37409;SDS011;23275;48.914;12.566;2023-03-03T13:42:39;30.35;;;17.02;;
37409;SDS011;23275;48.914;12.566;2023-03-03T13:50:46;26.27;;;16.58;;
37409;SDS011;23275;48.914;12.566;2023-03-03T14:01:11;27.33;;;17.08;;
37409;SDS011;23275;48.914;12.566;2023-03-03T14:04:42;28.80;;;16.83;;
37409;SDS011;23275;48.914;12.566;2023-03-03T14:07:13;25.35;;;16.08;;
37409;SDS011;23275;48.914;12.566;2023-03-03T14:09:51;29.02;;;15.20;;
37409;SDS011;23275;48.914;12.566;2023-03-03T14:20:31;25.63;;;14.98;;
37409;SDS011;23275;48.914;12.566;2023-03-03T14:23:46;25.75;;;15.77;;
37409;SDS011;23275;48.914;12.566;2023-03-03T14:26:14;28.20;;;14.98;;
37409;SDS011;23275;48.914;12.566;2023-03-03T14:28:41;23.15;;;14.10;;
37409;SDS011;23275;48.914;12.566;2023-03-03T14:31:25;25.95;;;14.63;;
37409;SDS011;23275;48.914;12.566;2023-03-03T14:33:56;25.15;;;14.20;;
37409;SDS011;23275;48.914;12.566;2023-03-03T14:36:41;24.33;;;14.90;;
37409;SDS011;23275;48.914;12.566;2023-03-03T14:39:25;24.67;;;14.75;;
37409;SDS011;23275;48.914;12.566;2023-03-03T14:49:42;21.40;;;13.55;;
37409;SDS011;23275;48.914;12.566;2023-03-03T14:52:17;24.92;;;14.57;;
37409;SDS011;23275;48.914;12.566;2023-03-03T14:54:46;24.48;;;14.65;;
37409;SDS011;23275;48.914;12.566;2023-03-03T14:57:18;24.50;;;14.43;;
37409;SDS011;23275;48.914;12.566;2023-03-03T14:59:57;24.75;;;14.55;;
37409;SDS011;23275;48.914;12.566;2023-03-03T15:02:40;22.77;;;14.30;;
37409;SDS011;23275;48.914;12.566;2023-03-03T15:08:06;26.90;;;15.18;;
37409;SDS011;23275;48.914;12.566;2023-03-03T15:10:37;24.38;;;14.77;;
37409;SDS011;23275;48.914;12.566;2023-03-03T15:18:23;22.70;;;14.00;;
37409;SDS011;23275;48.914;12.566;2023-03-03T15:20:55;26.40;;;15.23;;
37409;SDS011;23275;48.914;12.566;2023-03-03T15:23:48;26.80;;;14.50;;
37409;SDS011;23275;48.914;12.566;2023-03-03T15:29:07;23.30;;;14.02;;
37409;SDS011;23275;48.914;12.566;2023-03-03T15:34:20;27.30;;;15.13;;
37409;SDS011;23275;48.914;12.566;2023-03-03T15:36:56;25.58;;;14.80;;
37409;SDS011;23275;48.914;12.566;2023-03-03T15:42:41;24.65;;;14.10;;
37409;SDS011;23275;48.914;12.566;2023-03-03T15:45:30;24.40;;;14.13;;
37409;SDS011;23275;48.914;12.566;2023-03-03T15:56:36;25.48;;;14.90;;
37409;SDS011;23275;48.914;12.566;2023-03-03T16:04:52;23.88;;;14.50;;
37409;SDS011;23275;48.914;12.566;2023-03-03T16:07:41;25.73;;;14.55;;
37409;SDS011;23275;48.914;12.566;2023-03-03T16:10:28;25.65;;;13.75;;
37409;SDS011;23275;48.914;12.566;2023-03-03T16:13:21;23.15;;;13.60;;
37409;SDS011;23275;48.914;12.566;2023-03-03T16:18:32;23.67;;;12.93;;
37409;SDS011;23275;48.914;12.566;2023-03-03T16:23:50;26.95;;;14.15;;
37409;SDS011;23275;48.914;12.566;2023-03-03T16:31:36;26.92;;;14.80;;
37409;SDS011;23275;48.914;12.566;2023-03-03T16:34:24;23.83;;;13.77;;
37409;SDS011;23275;48.914;12.566;2023-03-03T16:39:55;24.63;;;14.25;;
37409;SDS011;23275;48.914;12.566;2023-03-03T16:42:28;25.73;;;15.40;;
37409;SDS011;23275;48.914;12.566;2023-03-03T16:53:24;25.98;;;13.90;;
37409;SDS011;23275;48.914;12.566;2023-03-03T17:07:05;25.88;;;14.95;;
37409;SDS011;23275;48.914;12.566;2023-03-03T17:18:14;27.52;;;15.98;;
37409;SDS011;23275;48.914;12.566;2023-03-03T17:20:47;29.67;;;15.07;;
37409;SDS011;23275;48.914;12.566;2023-03-03T17:23:21;32.90;;;15.73;;
37409;SDS011;23275;48.914;12.566;2023-03-03T17:29:17;29.13;;;15.93;;
37409;SDS011;23275;48.914;12.566;2023-03-03T17:37:30;36.25;;;14.77;;
37409;SDS011;23275;48.914;12.566;2023-03-03T17:45:13;29.45;;;16.23;;
37409;SDS011;23275;48.914;12.566;2023-03-03T18:07:03;30.73;;;18.00;;
37409;SDS011;23275;48.914;12.566;2023-03-03T18:21:01;32.33;;;16.75;;
37409;SDS011;23275;48.914;12.566;2023-03-03T18:26:27;29.77;;;15.95;;
37409;SDS011;23275;48.914;12.566;2023-03-03T18:29:05;28.48;;;15.50;;
37409;SDS011;23275;48.914;12.566;2023-03-03T18:39:36;29.13;;;16.27;;
37409;SDS011;23275;48.914;12.566;2023-03-03T18:42:04;33.97;;;17.25;;
37409;SDS011;23275;48.914;12.566;2023-03-03T18:44:54;29.17;;;15.98;;
37409;SDS011;23275;48.914;12.566;2023-03-03T18:47:24;36.92;;;18.48;;
37409;SDS011;23275;48.914;12.566;2023-03-03T18:55:58;33.90;;;19.58;;
37409;SDS011;23275;48.914;12.566;2023-03-03T19:01:32;30.85;;;17.27;;
37409;SDS011;23275;48.914;12.566;2023-03-03T19:04:21;33.53;;;19.73;;
37409;SDS011;23275;48.914;12.566;2023-03-03T19:09:17;38.70;;;20.80;;
37409;SDS011;23275;48.914;12.566;2023-03-03T19:12:07;43.00;;;20.25;;
37409;SDS011;23275;48.914;12.566;2023-03-03T19:14:35;43.17;;;22.10;;
37409;SDS011;23275;48.914;12.566;2023-03-03T19:20:00;39.55;;;20.92;;
37409;SDS011;23275;48.914;12.566;2023-03-03T19:22:39;39.38;;;20.95;;
37409;SDS011;23275;48.914;12.566;2023-03-03T19:33:25;37.08;;;20.02;;
37409;SDS011;23275;48.914;12.566;2023-03-03T19:41:19;29.17;;;16.05;;
37409;SDS011;23275;48.914;12.566;2023-03-03T19:46:51;30.50;;;17.60;;
37409;SDS011;23275;48.914;12.566;2023-03-03T19:52:21;39.90;;;17.48;;
37409;SDS011;23275;48.914;12.566;2023-03-03T20:00:26;34.55;;;20.42;;
37409;SDS011;23275;48.914;12.566;2023-03-03T20:06:14;30.50;;;17.27;;
37409;SDS011;23275;48.914;12.566;2023-03-03T20:17:29;32.03;;;18.70;;
37409;SDS011;23275;48.914;12.566;2023-03-03T20:23:05;33.60;;;18.88;;
37409;SDS011;23275;48.914;12.566;2023-03-03T20:25:52;33.40;;;18.85;;
37409;SDS011;23275;48.914;12.566;2023-03-03T20:31:40;27.40;;;15.95;;
37409;SDS011;23275;48.914;12.566;2023-03-03T20:37:08;29.02;;;17.10;;
37409;SDS011;23275;48.914;12.566;2023-03-03T20:40:00;33.53;;;17.48;;
37409;SDS011;23275;48.914;12.566;2023-03-03T20:50:59;29.83;;;16.55;;
37409;SDS011;23275;48.914;12.566;2023-03-03T20:53:49;32.38;;;18.05;;
37409;SDS011;23275;48.914;12.566;2023-03-03T20:59:12;38.15;;;19.83;;
37409;SDS011;23275;48.914;12.566;2023-03-03T21:04:29;35.70;;;19.27;;
37409;SDS011;23275;48.914;12.566;2023-03-03T21:06:56;35.35;;;19.42;;
37409;SDS011;23275;48.914;12.566;2023-03-03T21:09:29;40.28;;;20.50;;
37409;SDS011;23275;48.914;12.566;2023-03-03T21:12:01;37.35;;;20.70;;
37409;SDS011;23275;48.914;12.566;2023-03-03T21:14:34;36.75;;;19.45;;